createdAt,value
2023-01-04T00:01:38.272Z,6.32
2023-01-04T00:04:05.543Z,3.97
2023-01-04T00:06:32.919Z,3.78
2023-01-04T00:08:59.914Z,6.97
2023-01-04T00:11:27.907Z,5.32
2023-01-04T00:13:59.368Z,3.80
2023-01-04T00:16:28.852Z,5.10
2023-01-04T00:18:57.033Z,4.65
2023-01-04T00:21:30.709Z,5.35
2023-01-04T00:24:00.662Z,5.43
2023-01-04T00:26:34.453Z,4.03
2023-01-04T00:29:06.715Z,5.70
2023-01-04T00:31:35.216Z,4.68
2023-01-04T00:34:04.961Z,9.07
2023-01-04T00:36:33.328Z,4.97
2023-01-04T00:39:09.717Z,7.85
2023-01-04T00:42:07.172Z,6.38
2023-01-04T00:44:35.110Z,6.50
2023-01-04T00:47:04.496Z,6.70
2023-01-04T00:49:32.335Z,6.47
2023-01-04T00:51:59.504Z,5.80
2023-01-04T00:54:28.273Z,8.20
2023-01-04T00:56:55.317Z,6.13
2023-01-04T00:59:23.133Z,9.43
2023-01-04T01:01:51.219Z,6.93
2023-01-04T01:04:22.244Z,7.47
2023-01-04T01:06:51.091Z,6.32
2023-01-04T01:09:18.491Z,7.57
2023-01-04T01:11:45.590Z,7.25
2023-01-04T01:14:22.385Z,7.03
2023-01-04T01:16:55.773Z,6.13
2023-01-04T01:19:29.956Z,6.63
2023-01-04T01:21:58.323Z,9.30
2023-01-04T01:24:27.028Z,9.35
2023-01-04T01:26:54.814Z,9.70
2023-01-04T01:29:21.959Z,9.90
2023-01-04T01:31:49.030Z,8.23
2023-01-04T01:34:16.076Z,7.72
2023-01-04T01:36:45.831Z,8.10
2023-01-04T01:39:13.177Z,7.07
2023-01-04T01:41:40.239Z,7.15
2023-01-04T01:44:42.627Z,9.10
2023-01-04T01:47:21.606Z,9.10
2023-01-04T01:49:53.526Z,7.57
2023-01-04T01:52:38.413Z,11.90
2023-01-04T01:55:11.377Z,11.38
2023-01-04T01:57:39.950Z,9.27
2023-01-04T02:00:14.996Z,9.20
2023-01-04T02:03:14.802Z,7.80
2023-01-04T02:05:43.991Z,13.63
2023-01-04T02:08:13.457Z,12.18
2023-01-04T02:10:40.597Z,9.27
2023-01-04T02:13:16.878Z,8.82
2023-01-04T02:16:10.052Z,11.05
2023-01-04T02:18:51.583Z,8.52
2023-01-04T02:21:32.339Z,7.95
2023-01-04T02:24:20.320Z,13.65
2023-01-04T02:27:38.408Z,9.02
2023-01-04T02:30:55.921Z,6.97
2023-01-04T02:33:45.654Z,8.05
2023-01-04T02:36:31.988Z,11.63
2023-01-04T02:39:24.059Z,8.13
2023-01-04T02:42:04.476Z,13.48
2023-01-04T02:44:57.409Z,6.88
2023-01-04T02:47:57.728Z,8.85
2023-01-04T02:50:36.804Z,8.02
2023-01-04T02:53:17.675Z,7.95
2023-01-04T02:56:35.544Z,13.27
2023-01-04T02:59:45.803Z,8.65
2023-01-04T03:02:51.530Z,8.95
2023-01-04T03:06:13.680Z,13.05
2023-01-04T03:09:14.573Z,6.70
2023-01-04T03:12:06.540Z,9.15
2023-01-04T03:14:46.757Z,8.90
2023-01-04T03:17:19.934Z,9.00
2023-01-04T03:19:54.954Z,9.23
2023-01-04T03:23:02.046Z,10.05
2023-01-04T03:25:55.535Z,8.88
2023-01-04T03:28:46.334Z,9.68
2023-01-04T03:31:51.783Z,9.00
2023-01-04T03:34:38.316Z,8.60
2023-01-04T03:38:13.021Z,8.05
2023-01-04T03:41:05.355Z,5.25
2023-01-04T03:44:09.505Z,8.75
2023-01-04T03:47:08.153Z,7.50
2023-01-04T03:49:58.044Z,9.75
2023-01-04T03:52:30.492Z,8.15
2023-01-04T03:57:26.931Z,7.60
2023-01-04T04:00:02.275Z,10.77
2023-01-04T04:02:34.857Z,8.90
2023-01-04T04:05:21.701Z,9.30
2023-01-04T04:08:07.296Z,9.88
2023-01-04T04:10:34.318Z,8.38
2023-01-04T04:13:01.281Z,9.30
2023-01-04T04:15:28.327Z,10.93
2023-01-04T04:17:55.337Z,10.00
2023-01-04T04:20:22.419Z,17.27
2023-01-04T04:22:49.547Z,11.93
2023-01-04T04:25:16.621Z,11.13
2023-01-04T04:27:44.720Z,15.27
2023-01-04T04:30:12.078Z,13.77
2023-01-04T04:32:39.303Z,14.88
2023-01-04T04:35:06.616Z,11.82
2023-01-04T04:37:34.958Z,20.80
2023-01-04T04:40:02.329Z,18.65
2023-01-04T04:42:29.307Z,16.10
2023-01-04T04:44:56.627Z,13.88
2023-01-04T04:47:24.067Z,16.65
2023-01-04T04:49:51.868Z,15.38
2023-01-04T04:52:18.857Z,15.35
2023-01-04T04:54:46.055Z,15.60
2023-01-04T04:57:13.402Z,16.75
2023-01-04T04:59:40.691Z,17.40
2023-01-04T05:02:08.058Z,16.23
2023-01-04T05:04:35.298Z,15.68
2023-01-04T05:07:04.992Z,17.58
2023-01-04T05:09:38.778Z,29.02
2023-01-04T05:12:24.392Z,17.27
2023-01-04T05:14:53.554Z,17.65
2023-01-04T05:17:20.495Z,21.48
2023-01-04T05:19:47.567Z,21.58
2023-01-04T05:22:14.635Z,17.85
2023-01-04T05:24:41.646Z,22.10
2023-01-04T05:27:08.594Z,18.42
2023-01-04T05:29:54.198Z,20.10
2023-01-04T05:32:21.222Z,19.42
2023-01-04T05:34:48.214Z,19.45
2023-01-04T05:37:15.513Z,21.08
2023-01-04T05:39:42.554Z,19.02
2023-01-04T05:42:28.415Z,16.15
2023-01-04T05:44:57.899Z,17.30
2023-01-04T05:47:26.637Z,16.23
2023-01-04T05:49:53.687Z,18.27
2023-01-04T05:52:20.875Z,17.75
2023-01-04T05:54:47.940Z,16.30
2023-01-04T05:57:15.593Z,15.55
2023-01-04T05:59:42.961Z,16.48
2023-01-04T06:02:24.447Z,16.55
2023-01-04T06:04:58.486Z,18.33
2023-01-04T06:07:27.772Z,20.88
2023-01-04T06:09:55.925Z,18.85
2023-01-04T06:12:23.021Z,15.07
2023-01-04T06:14:50.023Z,16.33
2023-01-04T06:17:17.428Z,18.42
2023-01-04T06:19:44.583Z,17.98
2023-01-04T06:22:11.724Z,17.02
2023-01-04T06:24:38.755Z,11.30
2023-01-04T06:27:05.864Z,18.88
2023-01-04T06:29:43.347Z,15.48
2023-01-04T06:32:10.941Z,15.00
2023-01-04T06:34:38.189Z,16.75
2023-01-04T06:37:06.554Z,13.50
2023-01-04T06:39:33.744Z,13.73
2023-01-04T06:42:06.378Z,15.90
2023-01-04T06:45:13.660Z,14.38
2023-01-04T06:47:44.801Z,15.77
2023-01-04T06:54:15.854Z,12.57
2023-01-04T06:56:42.974Z,15.05
2023-01-04T06:59:10.182Z,17.38
2023-01-04T07:01:37.462Z,18.95
2023-01-04T07:04:06.474Z,15.70
2023-01-04T07:06:39.515Z,18.50
2023-01-04T07:18:10.938Z,15.02
2023-01-04T07:20:39.178Z,17.75
2023-01-04T07:23:07.777Z,15.10
2023-01-04T07:25:35.059Z,16.60
2023-01-04T07:28:02.268Z,15.65
2023-01-04T07:30:29.774Z,17.42
2023-01-04T07:32:57.445Z,13.98
2023-01-04T07:35:27.013Z,13.55
2023-01-04T07:37:58.775Z,10.30
2023-01-04T07:40:27.647Z,3.92
2023-01-04T07:43:00.016Z,6.63
2023-01-04T07:45:27.884Z,5.32
2023-01-04T07:47:55.237Z,3.25
2023-01-04T07:50:26.150Z,5.32
2023-01-04T07:52:53.759Z,4.03
2023-01-04T07:55:20.831Z,5.75
2023-01-04T07:57:47.835Z,2.08
2023-01-04T08:00:20.994Z,2.28
2023-01-04T08:02:50.172Z,3.42
2023-01-04T08:05:17.332Z,2.47
2023-01-04T08:07:47.468Z,2.50
2023-01-04T08:10:17.858Z,3.03
2023-01-04T08:12:48.199Z,4.40
2023-01-04T08:15:15.451Z,2.67
2023-01-04T08:17:42.539Z,2.10
2023-01-04T08:20:10.457Z,0.93
2023-01-04T08:23:09.760Z,3.50
2023-01-04T08:25:46.776Z,3.00
2023-01-04T08:28:13.823Z,1.20
2023-01-04T08:30:42.088Z,4.55
2023-01-04T08:33:16.357Z,2.47
2023-01-04T08:35:43.362Z,4.03
2023-01-04T08:38:55.750Z,4.25
2023-01-04T08:40:58.639Z,3.00
2023-01-04T08:43:31.286Z,2.58
2023-01-04T08:45:58.461Z,3.30
2023-01-04T08:48:25.933Z,2.95
2023-01-04T08:50:53.013Z,3.28
2023-01-04T08:53:20.420Z,2.17
2023-01-04T08:55:52.561Z,1.73
2023-01-04T08:58:43.275Z,1.98
2023-01-04T09:01:11.526Z,3.20
2023-01-04T09:03:38.903Z,3.13
2023-01-04T09:06:13.425Z,3.45
2023-01-04T09:08:42.873Z,1.80
2023-01-04T09:11:17.541Z,1.02
2023-01-04T09:13:47.024Z,1.15
2023-01-04T09:16:18.091Z,1.23
2023-01-04T09:18:46.853Z,1.65
2023-01-04T09:21:23.031Z,1.35
2023-01-04T09:23:53.477Z,2.40
2023-01-04T09:26:23.694Z,2.17
2023-01-04T09:28:53.788Z,1.73
2023-01-04T09:31:24.551Z,0.57
2023-01-04T09:36:39.746Z,1.67
2023-01-04T09:39:07.341Z,1.25
2023-01-04T09:41:49.029Z,1.85
2023-01-04T09:44:54.408Z,1.60
2023-01-04T09:47:33.068Z,0.77
2023-01-04T09:50:27.618Z,2.03
2023-01-04T09:53:16.929Z,1.42
2023-01-04T09:55:50.564Z,0.93
2023-01-04T09:58:42.539Z,2.13
2023-01-04T10:01:24.175Z,2.72
2023-01-04T10:04:00.419Z,1.92
2023-01-04T10:06:35.621Z,1.20
2023-01-04T10:09:10.985Z,1.45
2023-01-04T10:12:14.625Z,2.72
2023-01-04T10:15:11.063Z,1.67
2023-01-04T10:21:48.404Z,3.88
2023-01-04T10:24:56.028Z,0.40
2023-01-04T10:28:01.318Z,0.95
2023-01-04T10:30:59.938Z,1.98
2023-01-04T10:34:28.349Z,1.42
2023-01-04T10:45:13.750Z,1.08
2023-01-04T10:48:14.756Z,0.60
2023-01-04T10:51:10.496Z,1.17
2023-01-04T10:53:37.895Z,5.68
2023-01-04T10:56:27.449Z,1.90
2023-01-04T10:59:07.386Z,1.38
2023-01-04T11:02:09.866Z,1.92
2023-01-04T11:05:12.194Z,2.72
2023-01-04T11:08:10.294Z,1.45
2023-01-04T11:10:50.791Z,5.88
2023-01-04T11:13:18.362Z,1.23
2023-01-04T11:15:47.828Z,1.45
2023-01-04T11:18:17.086Z,3.90
2023-01-04T11:20:44.478Z,1.35
2023-01-04T11:23:18.146Z,1.25
2023-01-04T11:26:05.988Z,1.42
2023-01-04T11:28:47.340Z,1.73
2023-01-04T11:31:29.679Z,2.33
2023-01-04T11:34:02.959Z,3.08
2023-01-04T11:36:43.461Z,1.92
2023-01-04T11:39:22.084Z,2.78
2023-01-04T11:42:04.596Z,3.05
2023-01-04T11:44:36.176Z,2.15
2023-01-04T11:47:19.690Z,1.83
2023-01-04T11:49:48.216Z,1.40
2023-01-04T11:52:27.226Z,1.00
2023-01-04T11:54:54.837Z,1.90
2023-01-04T11:57:21.982Z,4.63
2023-01-04T12:00:15.608Z,2.92
2023-01-04T12:05:32.147Z,3.33
2023-01-04T12:07:59.605Z,2.65
2023-01-04T12:10:28.271Z,2.25
2023-01-04T12:12:59.651Z,1.00
2023-01-04T12:16:23.350Z,2.42
2023-01-04T12:18:50.771Z,2.33
2023-01-04T12:21:25.671Z,3.88
2023-01-04T12:23:55.936Z,2.83
2023-01-04T12:26:23.663Z,1.35
2023-01-04T12:29:24.870Z,1.02
2023-01-04T12:32:07.140Z,3.20
2023-01-04T12:34:34.423Z,2.88
2023-01-04T12:37:06.403Z,2.83
2023-01-04T12:39:42.883Z,3.20
2023-01-04T12:42:19.252Z,5.22
2023-01-04T12:44:47.008Z,4.00
2023-01-04T12:47:38.663Z,4.47
2023-01-04T12:50:13.498Z,3.85
2023-01-04T12:55:44.875Z,1.23
2023-01-04T13:02:16.253Z,2.47
2023-01-04T13:04:43.926Z,2.83
2023-01-04T13:07:41.064Z,2.28
2023-01-04T13:10:36.043Z,2.08
2023-01-04T13:13:43.536Z,1.05
2023-01-04T13:16:13.161Z,3.30
2023-01-04T13:18:56.553Z,2.35
2023-01-04T13:21:38.649Z,2.50
2023-01-04T13:24:34.373Z,3.28
2023-01-04T13:27:14.841Z,1.95
2023-01-04T13:29:42.671Z,1.85
2023-01-04T13:32:28.979Z,1.27
2023-01-04T13:35:17.426Z,0.95
2023-01-04T13:37:51.458Z,1.25
2023-01-04T13:40:27.267Z,5.35
2023-01-04T13:43:03.107Z,1.40
2023-01-04T13:46:10.265Z,1.42
2023-01-04T13:48:42.346Z,1.35
2023-01-04T13:51:23.311Z,1.38
2023-01-04T13:54:06.510Z,2.50
2023-01-04T13:56:34.980Z,3.33
2023-01-04T14:00:00.656Z,2.05
2023-01-04T14:02:29.587Z,1.88
2023-01-04T14:04:56.706Z,3.15
2023-01-04T14:07:25.383Z,2.53
2023-01-04T14:10:00.140Z,1.38
2023-01-04T14:12:29.134Z,1.90
2023-01-04T14:15:18.477Z,2.95
2023-01-04T14:17:51.129Z,1.90
2023-01-04T14:22:47.779Z,0.90
2023-01-04T14:25:33.610Z,2.17
2023-01-04T14:28:50.281Z,1.65
2023-01-04T14:31:25.593Z,1.35
2023-01-04T14:33:54.042Z,2.10
2023-01-04T14:36:34.274Z,1.75
2023-01-04T14:39:18.849Z,1.27
2023-01-04T14:41:48.969Z,2.17
2023-01-04T14:44:28.504Z,2.78
2023-01-04T14:50:17.729Z,1.15
2023-01-04T14:52:54.622Z,1.00
2023-01-04T14:55:23.695Z,1.17
2023-01-04T14:57:50.705Z,1.65
2023-01-04T15:00:19.754Z,2.00
2023-01-04T15:02:52.088Z,1.08
2023-01-04T15:05:22.765Z,1.27
2023-01-04T15:07:50.437Z,1.65
2023-01-04T15:10:36.064Z,1.27
2023-01-04T15:13:49.985Z,1.40
2023-01-04T15:16:18.835Z,1.55
2023-01-04T15:18:47.181Z,2.65
2023-01-04T15:21:14.639Z,1.30
2023-01-04T15:23:41.647Z,1.58
2023-01-04T15:26:11.599Z,2.75
2023-01-04T15:28:38.760Z,2.30
2023-01-04T15:31:09.361Z,1.20
2023-01-04T15:33:37.582Z,1.48
2023-01-04T15:36:15.063Z,3.15
2023-01-04T15:38:44.965Z,3.28
2023-01-04T15:41:36.526Z,1.70
2023-01-04T15:44:04.560Z,1.40
2023-01-04T15:46:31.821Z,0.98
2023-01-04T15:48:58.891Z,3.05
2023-01-04T15:51:26.146Z,3.03
2023-01-04T15:53:53.723Z,0.93
2023-01-04T15:56:21.724Z,2.05
2023-01-04T15:58:54.708Z,2.67
2023-01-04T16:01:22.861Z,1.05
2023-01-04T16:03:54.018Z,1.13
2023-01-04T16:06:22.196Z,2.58
2023-01-04T16:08:52.092Z,2.42
2023-01-04T16:11:22.974Z,0.82
2023-01-04T16:13:52.562Z,0.38
2023-01-04T16:16:22.664Z,1.05
2023-01-04T16:18:52.804Z,1.40
2023-01-04T16:21:28.246Z,1.65
2023-01-04T16:24:06.949Z,2.10
2023-01-04T16:26:40.161Z,1.58
2023-01-04T16:29:07.123Z,1.38
2023-01-04T16:31:36.684Z,3.35
2023-01-04T16:34:04.735Z,1.23
2023-01-04T16:36:32.271Z,4.25
2023-01-04T16:38:59.294Z,3.03
2023-01-04T16:41:26.443Z,1.95
2023-01-04T16:43:58.932Z,1.67
2023-01-04T16:49:25.799Z,0.90
2023-01-04T16:51:59.164Z,0.63
2023-01-04T16:54:29.455Z,0.80
2023-01-04T16:56:58.933Z,0.73
2023-01-04T16:59:26.254Z,0.50
2023-01-04T17:01:58.103Z,1.77
2023-01-04T17:04:25.798Z,1.27
2023-01-04T17:06:54.874Z,0.47
2023-01-04T17:09:22.546Z,2.00
2023-01-04T17:15:00.667Z,1.05
2023-01-04T17:17:34.749Z,0.75
2023-01-04T17:20:06.466Z,1.00
2023-01-04T17:22:35.251Z,0.95
2023-01-04T17:25:04.298Z,1.08
2023-01-04T17:27:31.301Z,1.20
2023-01-04T17:29:58.227Z,2.00
2023-01-04T17:32:25.273Z,1.52
2023-01-04T17:34:52.498Z,1.20
2023-01-04T17:37:19.481Z,3.08
2023-01-04T17:39:46.456Z,0.85
2023-01-04T17:42:13.563Z,0.90
2023-01-04T17:44:40.530Z,0.98
2023-01-04T17:47:07.600Z,3.40
2023-01-04T17:49:34.519Z,1.20
2023-01-04T17:52:01.798Z,2.05
2023-01-04T17:54:28.731Z,1.15
2023-01-04T17:56:55.656Z,1.45
2023-01-04T17:59:22.969Z,0.90
2023-01-04T18:01:50.296Z,0.88
2023-01-04T18:04:17.400Z,1.10
2023-01-04T18:06:44.374Z,2.63
2023-01-04T18:09:14.383Z,1.00
2023-01-04T18:11:44.497Z,3.25
2023-01-04T18:14:14.106Z,1.02
2023-01-04T18:16:57.453Z,0.40
2023-01-04T18:19:30.219Z,0.50
2023-01-04T18:21:58.588Z,0.52
2023-01-04T18:24:37.344Z,0.77
2023-01-04T18:27:22.607Z,0.40
2023-01-04T18:29:53.167Z,0.93
2023-01-04T18:32:21.540Z,0.73
2023-01-04T18:34:48.600Z,0.93
2023-01-04T18:37:16.555Z,0.43
2023-01-04T18:39:43.969Z,0.57
2023-01-04T18:42:11.019Z,1.00
2023-01-04T18:44:41.209Z,0.60
2023-01-04T18:47:15.682Z,0.68
2023-01-04T18:49:42.599Z,0.77
2023-01-04T18:52:09.609Z,0.57
2023-01-04T18:54:36.616Z,0.55
2023-01-04T18:57:05.015Z,0.85
2023-01-04T18:59:33.040Z,2.67
2023-01-04T19:02:01.489Z,0.30
2023-01-04T19:04:34.925Z,0.30
2023-01-04T19:07:02.303Z,0.20
2023-01-04T19:09:29.393Z,1.50
2023-01-04T19:11:56.423Z,0.40
2023-01-04T19:14:23.384Z,3.17
2023-01-04T19:16:50.542Z,0.20
2023-01-04T19:19:17.518Z,0.95
2023-01-04T19:21:44.891Z,0.75
2023-01-04T19:24:12.271Z,0.73
2023-01-04T19:26:39.665Z,1.33
2023-01-04T19:29:08.601Z,1.70
2023-01-04T19:31:36.206Z,1.08
2023-01-04T19:34:03.380Z,0.93
2023-01-04T19:36:30.550Z,0.30
2023-01-04T19:38:58.545Z,0.75
2023-01-04T19:41:33.977Z,1.30
2023-01-04T19:44:11.388Z,2.53
2023-01-04T19:46:40.626Z,0.40
2023-01-04T19:49:14.814Z,0.25
2023-01-04T19:52:02.806Z,0.28
2023-01-04T19:54:41.525Z,0.60
2023-01-04T19:57:21.462Z,3.10
2023-01-04T20:00:50.741Z,0.65
2023-01-04T20:03:30.699Z,0.93
2023-01-04T20:06:03.989Z,0.60
2023-01-04T20:08:34.208Z,0.40
2023-01-04T20:11:04.980Z,0.65
2023-01-04T20:13:33.700Z,0.30
2023-01-04T20:16:04.103Z,1.00
2023-01-04T20:18:33.003Z,0.50
2023-01-04T20:21:00.521Z,0.30
2023-01-04T20:23:28.015Z,0.70
2023-01-04T20:25:55.616Z,0.57
2023-01-04T20:28:24.981Z,0.40
2023-01-04T20:31:07.098Z,0.20
2023-01-04T20:33:35.069Z,0.50
2023-01-04T20:36:08.796Z,1.38
2023-01-04T20:38:41.471Z,0.50
2023-01-04T20:41:16.203Z,0.22
2023-01-04T20:43:46.462Z,0.68
2023-01-04T20:46:17.543Z,0.50
2023-01-04T20:48:45.580Z,0.30
2023-01-04T20:51:20.849Z,0.93
2023-01-04T20:53:48.622Z,0.90
2023-01-04T20:56:23.872Z,0.68
2023-01-04T20:58:51.744Z,0.60
2023-01-04T21:01:21.721Z,0.55
2023-01-04T21:03:49.560Z,5.25
2023-01-04T21:06:18.558Z,0.20
2023-01-04T21:08:46.581Z,0.43
2023-01-04T21:11:14.323Z,0.70
2023-01-04T21:13:41.649Z,0.57
2023-01-04T21:16:10.146Z,1.23
2023-01-04T21:18:38.429Z,1.63
2023-01-04T21:21:14.370Z,0.38
2023-01-04T21:23:43.621Z,0.35
2023-01-04T21:26:18.207Z,0.30
2023-01-04T21:28:46.658Z,0.95
2023-01-04T21:31:23.851Z,0.40
2023-01-04T21:33:53.567Z,0.20
2023-01-04T21:36:25.245Z,0.43
2023-01-04T21:38:56.180Z,2.47
2023-01-04T21:41:25.606Z,0.20
2023-01-04T21:43:57.014Z,0.90
2023-01-04T21:46:25.947Z,0.30
2023-01-04T21:48:59.285Z,0.80
2023-01-04T21:51:26.532Z,1.50
2023-01-04T21:54:23.966Z,0.20
2023-01-04T21:56:51.327Z,2.45
2023-01-04T21:59:18.279Z,0.95
2023-01-04T22:01:45.718Z,1.17
2023-01-04T22:04:12.772Z,1.13
2023-01-04T22:06:41.539Z,0.20
2023-01-04T22:09:08.539Z,0.30
2023-01-04T22:11:45.146Z,0.45
2023-01-04T22:14:12.182Z,1.20
2023-01-04T22:16:39.907Z,0.93
2023-01-04T22:19:06.846Z,2.00
2023-01-04T22:21:34.127Z,0.60
2023-01-04T22:24:01.204Z,0.63
2023-01-04T22:26:28.219Z,2.13
2023-01-04T22:28:55.372Z,6.88
2023-01-04T22:31:22.697Z,0.52
2023-01-04T22:33:49.823Z,2.75
2023-01-04T22:36:23.020Z,1.67
2023-01-04T22:38:55.657Z,1.88
2023-01-04T22:41:27.194Z,5.18
2023-01-04T22:44:00.889Z,2.08
2023-01-04T22:46:33.776Z,0.70
2023-01-04T22:49:01.974Z,8.80
2023-01-04T22:51:31.155Z,1.80
2023-01-04T22:54:02.198Z,2.58
2023-01-04T22:56:29.793Z,1.80
2023-01-04T22:58:58.400Z,3.20
2023-01-04T23:01:31.400Z,4.68
2023-01-04T23:04:02.350Z,2.17
2023-01-04T23:06:31.837Z,3.78
2023-01-04T23:09:05.708Z,2.13
2023-01-04T23:11:35.328Z,1.50
2023-01-04T23:14:07.343Z,5.32
2023-01-04T23:17:17.125Z,1.90
2023-01-04T23:20:10.419Z,1.92
2023-01-04T23:22:33.297Z,3.20
2023-01-04T23:25:00.345Z,4.32
2023-01-04T23:27:27.915Z,2.20
2023-01-04T23:34:40.743Z,0.68
2023-01-04T23:37:12.423Z,2.30
2023-01-04T23:39:52.075Z,1.77
2023-01-04T23:42:42.090Z,2.30
2023-01-04T23:45:12.429Z,2.42
2023-01-04T23:47:39.578Z,3.08
2023-01-04T23:51:10.060Z,4.43
2023-01-04T23:54:55.768Z,2.38
2023-01-04T23:57:22.847Z,1.38
2023-01-04T23:59:49.957Z,1.73
